createdAt,value
2017-04-24T00:00:46.840Z,4.60
2017-04-24T00:01:46.833Z,4.60
2017-04-24T00:02:46.576Z,4.60
2017-04-24T00:03:46.296Z,4.60
2017-04-24T00:04:46.809Z,4.60
2017-04-24T00:05:46.523Z,4.60
2017-04-24T00:06:47.001Z,4.50
2017-04-24T00:07:46.695Z,4.60
2017-04-24T00:08:46.387Z,4.50
2017-04-24T00:09:46.204Z,4.60
2017-04-24T00:10:46.673Z,4.50
2017-04-24T00:11:46.606Z,4.60
2017-04-24T00:12:46.340Z,4.60
2017-04-24T00:13:46.063Z,4.60
2017-04-24T00:14:46.660Z,4.50
2017-04-24T00:15:46.389Z,4.50
2017-04-24T00:16:46.849Z,4.50
2017-04-24T00:17:46.656Z,4.50
2017-04-24T00:18:46.377Z,4.50
2017-04-24T00:19:46.254Z,4.50
2017-04-24T00:20:45.977Z,4.50
2017-04-24T00:21:45.714Z,4.40
2017-04-24T00:22:45.447Z,4.40
2017-04-24T00:23:45.265Z,4.40
2017-04-24T00:24:44.974Z,4.40
2017-04-24T00:25:44.809Z,4.40
2017-04-24T00:26:45.261Z,4.40
2017-04-24T00:27:45.110Z,4.40
2017-04-24T00:28:44.838Z,4.40
2017-04-24T00:29:45.317Z,4.40
2017-04-24T00:30:45.073Z,4.40
2017-04-24T00:31:44.921Z,4.30
2017-04-24T00:32:45.665Z,4.30
2017-04-24T00:33:45.449Z,4.30
2017-04-24T00:34:45.202Z,4.30
2017-04-24T00:35:44.982Z,4.30
2017-04-24T00:36:45.445Z,4.20
2017-04-24T00:37:45.160Z,4.20
2017-04-24T00:38:44.874Z,4.20
2017-04-24T00:39:44.679Z,4.20
2017-04-24T00:40:44.418Z,4.20
2017-04-24T00:41:44.197Z,4.20
2017-04-24T00:42:44.733Z,4.20
2017-04-24T00:43:44.477Z,4.20
2017-04-24T00:44:44.223Z,4.20
2017-04-24T00:45:44.752Z,4.20
2017-04-24T00:46:44.485Z,4.20
2017-04-24T00:47:44.249Z,4.20
2017-04-24T00:48:44.772Z,4.10
2017-04-24T00:49:44.492Z,4.10
2017-04-24T00:50:44.224Z,4.10
2017-04-24T00:51:43.980Z,4.00
2017-04-24T00:52:42.929Z,4.00
2017-04-24T00:53:42.785Z,4.10
2017-04-24T00:54:42.534Z,4.10
2017-04-24T00:55:42.252Z,4.10
2017-04-24T00:56:42.701Z,4.00
2017-04-24T00:57:42.556Z,4.00
2017-04-24T00:58:43.074Z,4.00
2017-04-24T00:59:42.828Z,4.10
2017-04-24T01:00:42.583Z,4.10
2017-04-24T01:01:42.331Z,4.00
2017-04-24T01:02:42.114Z,4.00
2017-04-24T01:03:41.841Z,4.10
2017-04-24T01:04:41.575Z,4.10
2017-04-24T01:05:41.275Z,4.10
2017-04-24T01:06:41.012Z,4.10
2017-04-24T01:07:40.844Z,4.10
2017-04-24T01:08:40.594Z,4.10
2017-04-24T01:09:40.305Z,4.10
2017-04-24T01:10:40.148Z,4.10
2017-04-24T01:11:39.917Z,4.10
2017-04-24T01:12:40.443Z,4.10
2017-04-24T01:13:40.936Z,4.10
2017-04-24T01:14:40.741Z,4.10
2017-04-24T01:15:40.510Z,4.00
2017-04-24T01:16:40.268Z,4.00
2017-04-24T01:17:40.793Z,4.00
2017-04-24T01:18:41.373Z,4.00
2017-04-24T01:19:41.436Z,4.00
2017-04-24T01:20:41.210Z,4.00
2017-04-24T01:21:41.701Z,4.10
2017-04-24T01:22:41.439Z,4.10
2017-04-24T01:23:41.965Z,4.10
2017-04-24T01:24:42.644Z,4.00
2017-04-24T01:25:42.408Z,4.00
2017-04-24T01:26:42.125Z,4.00
2017-04-24T01:27:41.913Z,4.00
2017-04-24T01:28:41.665Z,4.00
2017-04-24T01:29:41.385Z,4.00
2017-04-24T01:30:41.899Z,3.90
2017-04-24T01:31:42.456Z,3.90
2017-04-24T01:32:42.202Z,3.90
2017-04-24T01:33:42.073Z,3.90
2017-04-24T01:34:41.961Z,3.90
2017-04-24T01:35:41.794Z,3.90
2017-04-24T01:36:41.588Z,3.90
2017-04-24T01:37:41.340Z,3.90
2017-04-24T01:38:41.067Z,4.00
2017-04-24T01:39:40.841Z,3.90
2017-04-24T01:40:41.393Z,4.00
2017-04-24T01:41:41.166Z,3.90
2017-04-24T01:42:41.686Z,3.90
2017-04-24T01:43:42.250Z,3.90
2017-04-24T01:44:42.019Z,3.90
2017-04-24T01:45:41.779Z,4.00
2017-04-24T01:46:41.591Z,3.90
2017-04-24T01:47:41.307Z,3.90
2017-04-24T01:48:41.854Z,3.90
2017-04-24T01:49:41.588Z,3.90
2017-04-24T01:50:41.308Z,3.80
2017-04-24T01:51:41.071Z,3.90
2017-04-24T01:52:40.953Z,3.90
2017-04-24T01:53:40.660Z,3.90
2017-04-24T01:54:40.386Z,3.90
2017-04-24T01:55:40.179Z,3.90
2017-04-24T01:56:39.920Z,3.90
2017-04-24T01:57:39.669Z,3.90
2017-04-24T01:58:39.377Z,3.90
2017-04-24T01:59:39.118Z,3.90
2017-04-24T02:00:38.821Z,3.80
2017-04-24T02:01:38.575Z,3.80
2017-04-24T02:02:38.331Z,3.90
2017-04-24T02:03:39.033Z,3.90
2017-04-24T02:04:38.781Z,3.90
2017-04-24T02:05:38.565Z,3.90
2017-04-24T02:06:39.090Z,3.90
2017-04-24T02:07:38.914Z,3.90
2017-04-24T02:08:38.699Z,3.90
2017-04-24T02:09:39.262Z,3.90
2017-04-24T02:10:39.740Z,3.80
2017-04-24T02:11:39.508Z,3.90
2017-04-24T02:12:39.231Z,3.90
2017-04-24T02:13:39.003Z,3.90
2017-04-24T02:14:38.781Z,3.90
2017-04-24T02:15:39.259Z,3.90
2017-04-24T02:16:38.981Z,3.90
2017-04-24T02:17:38.717Z,3.90
2017-04-24T02:18:38.424Z,4.00
2017-04-24T02:19:38.149Z,3.90
2017-04-24T02:20:37.912Z,4.00
2017-04-24T02:21:37.772Z,3.90
2017-04-24T02:22:37.532Z,4.00
2017-04-24T02:23:37.300Z,3.90
2017-04-24T02:24:37.786Z,3.90
2017-04-24T02:25:37.524Z,4.00
2017-04-24T02:26:38.031Z,3.90
2017-04-24T02:27:37.774Z,3.90
2017-04-24T02:28:37.489Z,3.90
2017-04-24T02:29:37.235Z,3.90
2017-04-24T02:30:37.693Z,3.90
2017-04-24T02:31:37.444Z,3.90
2017-04-24T02:32:37.336Z,4.00
2017-04-24T02:33:37.792Z,3.90
2017-04-24T02:34:38.297Z,4.00
2017-04-24T02:35:38.781Z,4.00
2017-04-24T02:36:38.522Z,4.00
2017-04-24T02:37:39.014Z,4.00
2017-04-24T02:38:38.722Z,4.00
2017-04-24T02:39:38.468Z,4.00
2017-04-24T02:40:38.193Z,4.00
2017-04-24T02:41:37.943Z,4.00
2017-04-24T02:42:38.403Z,4.00
2017-04-24T02:43:38.169Z,3.90
2017-04-24T02:44:38.624Z,3.90
2017-04-24T02:45:38.544Z,3.90
2017-04-24T02:46:38.260Z,4.00
2017-04-24T02:47:38.075Z,4.00
2017-04-24T02:48:37.811Z,4.00
2017-04-24T02:49:37.727Z,4.00
2017-04-24T02:50:37.500Z,4.00
2017-04-24T02:51:37.261Z,4.00
2017-04-24T02:52:36.983Z,4.00
2017-04-24T02:53:37.053Z,3.90
2017-04-24T02:54:36.852Z,4.00
2017-04-24T02:55:36.634Z,3.90
2017-04-24T02:56:36.657Z,3.90
2017-04-24T02:57:36.458Z,4.00
2017-04-24T02:58:36.204Z,3.90
2017-04-24T02:59:36.055Z,3.90
2017-04-24T03:00:35.823Z,3.90
2017-04-24T03:01:36.408Z,3.90
2017-04-24T03:02:36.151Z,3.90
2017-04-24T03:03:36.867Z,3.90
2017-04-24T03:04:37.348Z,3.90
2017-04-24T03:05:37.244Z,3.90
2017-04-24T03:06:37.009Z,3.80
2017-04-24T03:07:36.865Z,3.80
2017-04-24T03:08:36.629Z,3.80
2017-04-24T03:09:36.564Z,3.80
2017-04-24T03:10:36.251Z,3.80
2017-04-24T03:11:36.108Z,3.80
2017-04-24T03:12:36.739Z,3.80
2017-04-24T03:13:37.194Z,3.80
2017-04-24T03:14:36.985Z,3.80
2017-04-24T03:15:36.723Z,3.80
2017-04-24T03:16:37.224Z,3.80
2017-04-24T03:17:37.032Z,3.90
2017-04-24T03:18:37.518Z,3.80
2017-04-24T03:19:37.306Z,3.80
2017-04-24T03:20:38.598Z,3.80
2017-04-24T03:21:39.277Z,3.80
2017-04-24T03:22:39.040Z,3.90
2017-04-24T03:23:38.791Z,3.90
2017-04-24T03:25:38.732Z,3.90
2017-04-24T03:26:39.226Z,3.80
2017-04-24T03:27:39.081Z,3.80
2017-04-24T03:28:39.022Z,3.80
2017-04-24T03:29:38.946Z,3.80
2017-04-24T03:30:38.689Z,3.80
2017-04-24T03:31:38.450Z,3.70
2017-04-24T03:32:38.290Z,3.70
2017-04-24T03:33:38.210Z,3.70
2017-04-24T03:34:38.005Z,3.70
2017-04-24T03:35:37.754Z,3.70
2017-04-24T03:36:37.507Z,3.70
2017-04-24T03:37:37.241Z,3.70
2017-04-24T03:38:37.016Z,3.70
2017-04-24T03:39:36.786Z,3.70
2017-04-24T03:40:36.472Z,3.60
2017-04-24T03:41:36.182Z,3.60
2017-04-24T03:42:36.638Z,3.70
2017-04-24T03:43:36.375Z,3.70
2017-04-24T03:44:36.171Z,3.70
2017-04-24T03:45:35.872Z,3.80
2017-04-24T03:46:35.641Z,3.80
2017-04-24T03:47:35.377Z,3.80
2017-04-24T03:49:35.834Z,3.80
2017-04-24T03:50:36.506Z,3.80
2017-04-24T03:51:36.278Z,3.80
2017-04-24T03:52:36.096Z,3.80
2017-04-24T03:53:35.968Z,3.90
2017-04-24T03:54:36.550Z,3.80
2017-04-24T03:55:37.103Z,3.80
2017-04-24T03:56:37.650Z,3.80
2017-04-24T03:57:37.486Z,3.80
2017-04-24T03:58:37.207Z,3.80
2017-04-24T03:59:36.997Z,3.80
2017-04-24T04:00:37.458Z,3.80
2017-04-24T04:01:37.997Z,3.80
2017-04-24T04:02:37.700Z,3.80
2017-04-24T04:03:37.493Z,3.80
2017-04-24T04:04:37.200Z,3.70
2017-04-24T04:05:37.320Z,3.60
2017-04-24T04:06:37.050Z,3.60
2017-04-24T04:07:36.760Z,3.70
2017-04-24T04:08:36.524Z,3.60
2017-04-24T04:09:36.239Z,3.60
2017-04-24T04:10:36.716Z,3.60
2017-04-24T04:11:36.502Z,3.60
2017-04-24T04:12:36.961Z,3.60
2017-04-24T04:13:36.703Z,3.50
2017-04-24T04:14:36.416Z,3.60
2017-04-24T04:15:36.899Z,3.60
2017-04-24T04:16:36.696Z,3.70
2017-04-24T04:17:36.407Z,3.70
2017-04-24T04:18:36.117Z,3.70
2017-04-24T04:19:35.869Z,3.80
2017-04-24T04:20:35.661Z,3.70
2017-04-24T04:21:36.220Z,3.70
2017-04-24T04:22:35.972Z,3.70
2017-04-24T04:23:35.730Z,3.70
2017-04-24T04:24:35.508Z,3.70
2017-04-24T04:25:35.229Z,3.70
2017-04-24T04:26:34.968Z,3.80
2017-04-24T04:27:35.445Z,3.70
2017-04-24T04:28:36.034Z,3.80
2017-04-24T04:29:35.764Z,3.80
2017-04-24T04:30:35.591Z,3.80
2017-04-24T04:31:35.330Z,3.80
2017-04-24T04:32:35.197Z,3.70
2017-04-24T04:33:34.956Z,3.80
2017-04-24T04:34:34.717Z,3.80
2017-04-24T04:35:35.340Z,3.80
2017-04-24T04:36:35.791Z,3.80
2017-04-24T04:37:35.617Z,3.80
2017-04-24T04:38:35.448Z,3.80
2017-04-24T04:39:35.252Z,3.80
2017-04-24T04:40:35.002Z,3.80
2017-04-24T04:41:34.788Z,3.80
2017-04-24T04:42:34.574Z,3.90
2017-04-24T04:43:35.114Z,3.90
2017-04-24T04:44:34.904Z,3.90
2017-04-24T04:45:35.369Z,3.90
2017-04-24T04:46:35.220Z,3.90
2017-04-24T04:47:35.728Z,3.90
2017-04-24T04:48:36.214Z,3.90
2017-04-24T04:49:35.953Z,3.90
2017-04-24T04:50:36.429Z,3.80
2017-04-24T04:51:36.469Z,3.90
2017-04-24T04:52:37.048Z,3.90
2017-04-24T04:53:36.800Z,3.90
2017-04-24T04:54:37.348Z,3.90
2017-04-24T04:55:37.080Z,3.90
2017-04-24T04:57:36.817Z,3.90
2017-04-24T04:58:37.291Z,3.90
2017-04-24T04:59:37.029Z,3.90
2017-04-24T05:00:36.747Z,3.90
2017-04-24T05:01:37.213Z,3.90
2017-04-24T05:02:36.933Z,3.90
2017-04-24T05:03:36.749Z,3.90
2017-04-24T05:04:36.588Z,3.90
2017-04-24T05:05:36.323Z,4.00
2017-04-24T05:06:36.061Z,4.00
2017-04-24T05:07:35.791Z,4.00
2017-04-24T05:08:36.237Z,4.00
2017-04-24T05:09:35.987Z,4.00
2017-04-24T05:10:36.535Z,4.00
2017-04-24T05:11:36.249Z,4.10
2017-04-24T05:12:36.017Z,4.10
2017-04-24T05:13:36.478Z,4.10
2017-04-24T05:14:36.297Z,4.20
2017-04-24T05:15:36.032Z,4.30
2017-04-24T05:16:36.560Z,4.30
2017-04-24T05:17:36.420Z,4.30
2017-04-24T05:18:36.140Z,4.30
2017-04-24T05:19:35.861Z,4.40
2017-04-24T05:20:36.366Z,4.30
2017-04-24T05:21:36.847Z,4.30
2017-04-24T05:22:36.584Z,4.30
2017-04-24T05:23:37.024Z,4.30
2017-04-24T05:24:36.780Z,4.30
2017-04-24T05:25:36.554Z,4.20
2017-04-24T05:26:36.305Z,4.20
2017-04-24T05:27:36.021Z,4.20
2017-04-24T05:28:36.456Z,4.20
2017-04-24T05:29:36.222Z,4.30
2017-04-24T05:30:36.776Z,4.30
2017-04-24T05:31:36.508Z,4.40
2017-04-24T05:32:36.311Z,4.40
2017-04-24T05:33:36.029Z,4.40
2017-04-24T05:34:35.748Z,4.50
2017-04-24T05:35:35.461Z,4.50
2017-04-24T05:36:37.132Z,4.50
2017-04-24T05:37:36.860Z,4.50
2017-04-24T05:38:36.594Z,4.50
2017-04-24T05:39:36.321Z,4.60
2017-04-24T05:40:36.080Z,4.60
2017-04-24T05:41:35.776Z,4.60
2017-04-24T05:42:35.528Z,4.60
2017-04-24T05:43:35.249Z,4.70
2017-04-24T05:44:35.127Z,4.70
2017-04-24T05:45:34.851Z,4.80
2017-04-24T05:46:34.569Z,4.80
2017-04-24T05:47:34.321Z,4.80
2017-04-24T05:48:34.672Z,4.80
2017-04-24T05:49:35.369Z,4.90
2017-04-24T05:50:35.152Z,5.00
2017-04-24T05:51:34.948Z,4.90
2017-04-24T05:52:34.702Z,5.00
2017-04-24T05:53:35.240Z,5.00
2017-04-24T05:54:34.993Z,5.00
2017-04-24T05:55:34.807Z,5.10
2017-04-24T05:56:34.525Z,5.10
2017-04-24T05:57:34.986Z,5.20
2017-04-24T05:58:34.720Z,5.20
2017-04-24T05:59:34.480Z,5.20
2017-04-24T06:00:34.240Z,5.10
2017-04-24T06:01:34.715Z,5.10
2017-04-24T06:02:34.419Z,5.20
2017-04-24T06:03:34.149Z,5.20
2017-04-24T06:04:33.950Z,5.20
2017-04-24T06:05:33.707Z,5.20
2017-04-24T06:06:34.153Z,5.30
2017-04-24T06:07:33.854Z,5.30
2017-04-24T06:08:33.775Z,5.40
2017-04-24T06:09:33.702Z,5.40
2017-04-24T06:10:34.176Z,5.30
2017-04-24T06:11:33.930Z,5.40
2017-04-24T06:12:33.643Z,5.30
2017-04-24T06:13:33.660Z,5.30
2017-04-24T06:14:33.389Z,5.40
2017-04-24T06:15:33.101Z,5.40
2017-04-24T06:16:32.857Z,5.50
2017-04-24T06:17:32.562Z,5.60
2017-04-24T06:18:32.332Z,5.60
2017-04-24T06:19:32.828Z,5.60
2017-04-24T06:20:32.601Z,5.60
2017-04-24T06:21:32.356Z,5.60
2017-04-24T06:22:32.201Z,5.70
2017-04-24T06:23:31.966Z,5.70
2017-04-24T06:24:31.733Z,5.70
2017-04-24T06:25:32.180Z,5.70
2017-04-24T06:26:31.922Z,5.80
2017-04-24T06:27:31.808Z,5.70
2017-04-24T06:28:31.524Z,5.70
2017-04-24T06:29:31.351Z,5.80
2017-04-24T06:30:31.092Z,5.80
2017-04-24T06:31:30.854Z,5.90
2017-04-24T06:32:30.641Z,5.90
2017-04-24T06:33:30.349Z,5.90
2017-04-24T06:34:30.089Z,6.00
2017-04-24T06:35:29.796Z,5.90
2017-04-24T06:36:29.547Z,5.90
2017-04-24T06:37:29.292Z,5.90
2017-04-24T06:38:29.012Z,6.00
2017-04-24T06:39:29.511Z,6.00
2017-04-24T06:40:29.217Z,6.10
2017-04-24T06:41:28.921Z,6.20
2017-04-24T06:42:28.712Z,6.30
2017-04-24T06:44:28.410Z,6.20
2017-04-24T06:45:28.117Z,6.20
2017-04-24T06:46:27.834Z,6.30
2017-04-24T06:47:28.324Z,6.20
2017-04-24T06:48:28.088Z,6.20
2017-04-24T06:49:27.833Z,6.30
2017-04-24T06:50:27.729Z,6.40
2017-04-24T06:51:27.442Z,6.40
2017-04-24T06:52:27.167Z,6.40
2017-04-24T06:53:27.630Z,6.40
2017-04-24T06:54:27.510Z,6.50
2017-04-24T06:55:27.253Z,6.50
2017-04-24T06:56:26.977Z,6.50
2017-04-24T06:57:26.715Z,6.50
2017-04-24T06:58:26.450Z,6.60
2017-04-24T06:59:26.192Z,6.70
2017-04-24T07:00:26.696Z,6.80
2017-04-24T07:01:26.417Z,6.80
2017-04-24T07:02:26.887Z,7.00
2017-04-24T07:03:26.652Z,7.10
2017-04-24T07:04:26.354Z,7.20
2017-04-24T07:05:26.096Z,7.30
2017-04-24T07:06:25.820Z,7.40
2017-04-24T07:07:25.537Z,7.50
2017-04-24T07:08:26.041Z,7.50
2017-04-24T07:09:26.515Z,7.60
2017-04-24T07:10:26.258Z,7.70
2017-04-24T07:11:25.968Z,7.70
2017-04-24T07:12:26.437Z,7.60
2017-04-24T07:13:26.215Z,7.60
2017-04-24T07:14:25.933Z,7.60
2017-04-24T07:15:25.816Z,7.70
2017-04-24T07:16:25.588Z,7.80
2017-04-24T07:17:26.043Z,7.80
2017-04-24T07:18:25.768Z,7.80
2017-04-24T07:19:25.524Z,7.60
2017-04-24T07:20:25.231Z,7.70
2017-04-24T07:21:24.981Z,7.80
2017-04-24T07:22:25.485Z,7.80
2017-04-24T07:23:26.006Z,7.70
2017-04-24T07:24:25.784Z,7.70
2017-04-24T07:25:26.320Z,7.60
2017-04-24T07:26:26.083Z,7.60
2017-04-24T07:27:25.817Z,7.50
2017-04-24T07:28:26.309Z,7.50
2017-04-24T07:29:26.045Z,7.60
2017-04-24T07:30:25.846Z,7.60
2017-04-24T07:31:25.633Z,7.60
2017-04-24T07:32:26.134Z,7.70
2017-04-24T07:33:25.857Z,7.80
2017-04-24T07:34:26.344Z,7.70
2017-04-24T07:35:26.132Z,7.80
2017-04-24T07:36:25.889Z,7.80
2017-04-24T07:37:25.634Z,7.80
2017-04-24T07:38:25.390Z,7.90
2017-04-24T07:39:25.137Z,7.90
2017-04-24T07:40:24.953Z,7.90
2017-04-24T07:41:24.718Z,7.90
2017-04-24T07:42:24.485Z,8.00
2017-04-24T07:43:24.206Z,8.10
2017-04-24T07:44:24.000Z,8.10
2017-04-24T07:45:23.739Z,8.20
2017-04-24T07:46:23.550Z,8.20
2017-04-24T07:47:23.293Z,8.30
2017-04-24T07:48:23.789Z,8.30
2017-04-24T07:49:24.053Z,8.40
2017-04-24T07:50:24.614Z,8.30
2017-04-24T07:51:24.364Z,8.20
2017-04-24T07:52:24.081Z,8.30
2017-04-24T07:53:23.806Z,8.40
2017-04-24T07:54:23.540Z,8.50
2017-04-24T07:55:24.024Z,8.50
2017-04-24T07:56:23.752Z,8.50
2017-04-24T07:57:23.470Z,8.60
2017-04-24T07:58:23.172Z,8.70
2017-04-24T07:59:22.877Z,8.80
2017-04-24T08:00:22.631Z,8.80
2017-04-24T08:01:23.096Z,8.90
2017-04-24T08:02:22.834Z,9.00
2017-04-24T08:03:22.601Z,9.10
2017-04-24T08:04:22.327Z,9.10
2017-04-24T08:05:22.093Z,9.20
2017-04-24T08:06:21.832Z,9.10
2017-04-24T08:07:21.648Z,9.00
2017-04-24T08:08:21.420Z,8.80
2017-04-24T08:09:21.155Z,8.90
2017-04-24T08:10:20.909Z,8.90
2017-04-24T08:11:20.695Z,9.10
2017-04-24T08:12:20.406Z,9.10
2017-04-24T08:13:20.172Z,9.20
2017-04-24T08:14:19.891Z,9.20
2017-04-24T08:15:19.628Z,9.10
2017-04-24T08:16:20.092Z,9.20
2017-04-24T08:17:19.831Z,9.40
2017-04-24T08:18:19.590Z,9.40
2017-04-24T08:19:19.335Z,9.40
2017-04-24T08:20:19.034Z,9.50
2017-04-24T08:21:18.761Z,9.60
2017-04-24T08:22:18.476Z,9.80
2017-04-24T08:23:18.221Z,9.90
2017-04-24T08:24:17.937Z,9.80
2017-04-24T08:25:17.676Z,9.80
2017-04-24T08:26:17.388Z,9.80
2017-04-24T08:27:17.120Z,9.80
2017-04-24T08:28:16.878Z,9.80
2017-04-24T08:29:16.602Z,9.70
2017-04-24T08:30:16.304Z,9.70
2017-04-24T08:31:16.038Z,9.70
2017-04-24T08:32:15.822Z,9.60
2017-04-24T08:33:15.525Z,9.60
2017-04-24T08:34:15.225Z,9.50
2017-04-24T08:36:14.900Z,9.40
2017-04-24T08:37:14.632Z,9.40
2017-04-24T08:38:14.365Z,9.50
2017-04-24T08:39:14.896Z,9.60
2017-04-24T08:40:14.604Z,9.60
2017-04-24T08:41:14.369Z,9.60
2017-04-24T08:42:14.085Z,9.70
2017-04-24T08:43:14.621Z,9.70
2017-04-24T08:44:14.381Z,9.70
2017-04-24T08:45:14.140Z,9.80
2017-04-24T08:46:13.880Z,9.90
2017-04-24T08:47:13.621Z,10.00
2017-04-24T08:48:13.379Z,10.20
2017-04-24T08:49:13.087Z,10.20
2017-04-24T08:50:12.824Z,10.40
2017-04-24T08:51:12.542Z,10.40
2017-04-24T08:52:12.267Z,10.50
2017-04-24T08:53:11.987Z,10.60
2017-04-24T08:54:11.807Z,10.70
2017-04-24T08:55:11.525Z,10.70
2017-04-24T08:56:11.270Z,10.70
2017-04-24T08:57:10.985Z,10.70
2017-04-24T08:58:10.710Z,10.80
2017-04-24T08:59:11.224Z,10.70
2017-04-24T09:00:10.958Z,10.90
2017-04-24T09:01:10.732Z,10.90
2017-04-24T09:02:11.309Z,10.80
2017-04-24T09:03:11.043Z,10.80
2017-04-24T09:04:10.752Z,11.00
2017-04-24T09:05:10.589Z,11.10
2017-04-24T09:06:10.358Z,11.10
2017-04-24T09:07:10.087Z,11.10
2017-04-24T09:08:09.828Z,11.10
2017-04-24T09:09:10.579Z,11.10
2017-04-24T09:10:10.377Z,11.00
2017-04-24T09:11:10.188Z,11.10
2017-04-24T09:12:09.943Z,11.20
2017-04-24T09:13:09.680Z,11.30
2017-04-24T09:14:09.442Z,11.20
2017-04-24T09:15:09.183Z,11.40
2017-04-24T09:16:08.933Z,11.40
2017-04-24T09:17:08.644Z,11.60
2017-04-24T09:18:08.375Z,11.70
2017-04-24T09:19:08.142Z,11.70
2017-04-24T09:20:07.876Z,11.70
2017-04-24T09:21:07.630Z,11.80
2017-04-24T09:22:07.430Z,11.80
2017-04-24T09:23:07.203Z,11.70
2017-04-24T09:24:06.935Z,11.80
2017-04-24T09:25:06.656Z,11.70
2017-04-24T09:26:06.393Z,11.80
2017-04-24T09:27:06.131Z,11.80
2017-04-24T09:28:05.883Z,11.70
2017-04-24T09:29:06.346Z,11.80
2017-04-24T09:30:06.076Z,11.70
2017-04-24T09:31:05.833Z,11.90
2017-04-24T09:32:05.606Z,11.60
2017-04-24T09:33:05.356Z,11.70
2017-04-24T09:34:05.089Z,11.70
2017-04-24T09:35:05.556Z,11.80
2017-04-24T09:36:05.284Z,11.80
2017-04-24T09:37:05.045Z,11.80
2017-04-24T09:38:04.860Z,11.70
2017-04-24T09:39:04.720Z,11.60
2017-04-24T09:40:05.206Z,11.70
2017-04-24T09:41:04.960Z,11.70
2017-04-24T09:42:04.669Z,11.70
2017-04-24T09:43:04.411Z,11.70
2017-04-24T09:44:04.141Z,11.70
2017-04-24T09:45:03.921Z,11.70
2017-04-24T09:46:03.708Z,11.90
2017-04-24T09:47:03.449Z,12.00
2017-04-24T09:48:03.944Z,12.10
2017-04-24T09:49:03.663Z,12.00
2017-04-24T09:50:04.108Z,11.80
2017-04-24T09:51:03.853Z,11.70
2017-04-24T09:52:03.573Z,11.80
2017-04-24T09:53:04.979Z,11.90
2017-04-24T09:54:04.676Z,12.00
2017-04-24T09:55:04.386Z,12.00
2017-04-24T09:56:04.107Z,12.10
2017-04-24T09:57:03.861Z,12.10
2017-04-24T09:58:03.598Z,12.10
2017-04-24T09:59:03.329Z,12.00
2017-04-24T10:00:03.063Z,12.10
2017-04-24T10:01:02.762Z,12.20
2017-04-24T10:02:02.504Z,12.20
2017-04-24T10:03:02.191Z,12.20
2017-04-24T10:04:01.955Z,12.30
2017-04-24T10:05:01.669Z,12.30
2017-04-24T10:06:01.366Z,12.40
2017-04-24T10:07:01.059Z,12.50
2017-04-24T10:08:00.820Z,12.40
2017-04-24T10:10:00.463Z,12.50
2017-04-24T10:11:00.177Z,12.60
2017-04-24T10:12:00.042Z,12.60
2017-04-24T10:13:00.520Z,12.70
2017-04-24T10:14:00.324Z,12.80
2017-04-24T10:15:00.037Z,12.90
2017-04-24T10:15:59.756Z,12.90
2017-04-24T10:16:59.719Z,13.00
2017-04-24T10:18:00.235Z,13.00
2017-04-24T10:19:00.704Z,12.90
2017-04-24T10:20:00.441Z,12.80
2017-04-24T10:21:00.140Z,12.90
2017-04-24T10:21:59.874Z,12.70
2017-04-24T10:22:59.734Z,12.70
2017-04-24T10:23:59.489Z,12.60
2017-04-24T10:24:59.432Z,12.60
2017-04-24T10:25:59.370Z,12.70
2017-04-24T10:26:59.850Z,12.60
2017-04-24T10:27:59.570Z,12.50
2017-04-24T10:28:59.353Z,12.40
2017-04-24T10:29:59.162Z,12.30
2017-04-24T10:30:58.916Z,12.40
2017-04-24T10:31:58.658Z,12.30
2017-04-24T10:32:58.359Z,12.50
2017-04-24T10:33:58.092Z,12.60
2017-04-24T10:34:58.569Z,12.70
2017-04-24T10:35:58.289Z,12.80
2017-04-24T10:36:57.995Z,12.80
2017-04-24T10:37:58.453Z,12.70
2017-04-24T10:38:58.160Z,12.70
2017-04-24T10:39:57.913Z,12.70
2017-04-24T10:40:57.681Z,12.80
2017-04-24T10:41:57.389Z,12.90
2017-04-24T10:42:57.105Z,13.00
2017-04-24T10:43:56.812Z,13.00
2017-04-24T10:44:56.544Z,13.00
2017-04-24T10:45:56.687Z,13.10
2017-04-24T10:46:56.458Z,13.00
2017-04-24T10:47:56.169Z,13.20
2017-04-24T10:48:55.892Z,13.30
2017-04-24T10:49:55.639Z,13.30
2017-04-24T10:50:56.154Z,13.30
2017-04-24T10:51:56.654Z,13.20
2017-04-24T10:52:56.402Z,13.30
2017-04-24T10:53:56.919Z,13.30
2017-04-24T10:54:57.373Z,13.50
2017-04-24T10:55:57.117Z,13.60
2017-04-24T10:56:56.852Z,13.70
2017-04-24T10:57:56.567Z,13.70
2017-04-24T10:58:56.280Z,13.70
2017-04-24T10:59:56.001Z,13.60
2017-04-24T11:00:55.695Z,13.50
2017-04-24T11:01:55.924Z,13.40
2017-04-24T11:02:55.683Z,13.40
2017-04-24T11:03:55.470Z,13.20
2017-04-24T11:04:55.190Z,13.20
2017-04-24T11:05:54.937Z,13.20
2017-04-24T11:06:55.443Z,13.10
2017-04-24T11:08:55.565Z,13.10
2017-04-24T11:09:55.324Z,13.00
2017-04-24T11:10:55.053Z,13.00
2017-04-24T11:11:54.768Z,13.00
2017-04-24T11:12:55.286Z,13.20
2017-04-24T11:13:54.983Z,13.20
2017-04-24T11:14:54.701Z,13.30
2017-04-24T11:15:55.192Z,13.20
2017-04-24T11:16:54.904Z,13.40
2017-04-24T11:17:54.646Z,13.50
2017-04-24T11:18:54.393Z,13.60
2017-04-24T11:19:54.137Z,13.70
2017-04-24T11:20:53.933Z,13.80
2017-04-24T11:21:54.417Z,13.80
2017-04-24T11:22:54.132Z,13.80
2017-04-24T11:23:53.915Z,14.00
2017-04-24T11:24:53.624Z,14.20
2017-04-24T11:25:53.325Z,14.30
2017-04-24T11:26:53.014Z,14.40
2017-04-24T11:27:52.710Z,14.20
2017-04-24T11:28:52.425Z,14.10
2017-04-24T11:29:52.147Z,14.20
2017-04-24T11:30:52.654Z,14.40
2017-04-24T11:31:52.363Z,14.30
2017-04-24T11:32:52.198Z,14.00
2017-04-24T11:33:51.924Z,14.00
2017-04-24T11:34:51.704Z,14.00
2017-04-24T11:35:51.515Z,14.10
2017-04-24T11:36:51.242Z,14.30
2017-04-24T11:37:50.971Z,14.30
2017-04-24T11:38:51.452Z,14.50
2017-04-24T11:39:51.179Z,14.50
2017-04-24T11:40:50.894Z,14.50
2017-04-24T11:41:51.363Z,14.60
2017-04-24T11:42:51.071Z,14.40
2017-04-24T11:43:50.802Z,14.30
2017-04-24T11:44:50.532Z,14.50
2017-04-24T11:45:50.373Z,14.60
2017-04-24T11:46:50.117Z,14.60
2017-04-24T11:47:50.559Z,14.60
2017-04-24T11:48:51.362Z,14.60
2017-04-24T11:49:51.596Z,14.60
2017-04-24T11:50:51.320Z,14.50
2017-04-24T11:51:51.042Z,14.40
2017-04-24T11:52:50.762Z,14.50
2017-04-24T11:53:50.488Z,14.50
2017-04-24T11:54:50.269Z,14.50
2017-04-24T11:55:50.749Z,14.60
2017-04-24T11:56:50.470Z,14.70
2017-04-24T11:57:50.239Z,14.70
2017-04-24T11:58:49.967Z,14.80
2017-04-24T11:59:49.695Z,14.60
2017-04-24T12:00:50.148Z,14.60
2017-04-24T12:01:49.860Z,14.40
2017-04-24T12:02:49.635Z,14.50
2017-04-24T12:03:49.372Z,14.50
2017-04-24T12:04:49.062Z,14.60
2017-04-24T12:05:48.790Z,14.60
2017-04-24T12:06:48.502Z,14.60
2017-04-24T12:07:48.274Z,14.70
2017-04-24T12:08:47.991Z,14.60
2017-04-24T12:09:47.778Z,14.80
2017-04-24T12:10:47.496Z,14.90
2017-04-24T12:11:47.272Z,14.70
2017-04-24T12:12:47.006Z,14.60
2017-04-24T12:13:46.748Z,14.70
2017-04-24T12:14:47.160Z,14.80
2017-04-24T12:15:46.901Z,14.70
2017-04-24T12:16:47.355Z,14.90
2017-04-24T12:17:47.153Z,15.00
2017-04-24T12:18:47.045Z,15.10
2017-04-24T12:19:46.797Z,15.30
2017-04-24T12:20:46.538Z,15.50
2017-04-24T12:21:47.119Z,15.60
2017-04-24T12:22:46.882Z,15.90
2017-04-24T12:23:46.611Z,16.00
2017-04-24T12:24:46.336Z,16.20
2017-04-24T12:25:46.163Z,16.30
2017-04-24T12:26:46.742Z,16.30
2017-04-24T12:27:46.504Z,16.50
2017-04-24T12:28:46.233Z,17.00
2017-04-24T12:29:45.976Z,17.10
2017-04-24T12:30:46.463Z,17.00
2017-04-24T12:31:46.224Z,17.30
2017-04-24T12:32:45.949Z,17.00
2017-04-24T12:33:45.731Z,17.10
2017-04-24T12:34:45.428Z,17.20
2017-04-24T12:35:45.177Z,17.00
2017-04-24T12:36:44.913Z,17.00
2017-04-24T12:37:44.688Z,17.00
2017-04-24T12:38:44.430Z,16.80
2017-04-24T12:39:44.154Z,17.00
2017-04-24T12:40:44.641Z,17.20
2017-04-24T12:41:44.396Z,17.50
2017-04-24T12:42:44.124Z,18.00
2017-04-24T12:43:43.829Z,18.10
2017-04-24T12:44:43.557Z,18.10
2017-04-24T12:45:43.280Z,18.20
2017-04-24T12:46:43.764Z,18.50
2017-04-24T12:47:43.512Z,18.50
2017-04-24T12:48:43.290Z,18.60
2017-04-24T12:49:43.787Z,18.70
2017-04-24T12:50:43.498Z,18.90
2017-04-24T12:51:44.188Z,18.80
2017-04-24T12:52:43.977Z,18.20
2017-04-24T12:53:43.705Z,17.90
2017-04-24T12:54:43.478Z,17.60
2017-04-24T12:55:43.194Z,17.80
2017-04-24T12:56:42.916Z,18.10
2017-04-24T12:57:42.641Z,18.10
2017-04-24T12:58:43.190Z,17.60
2017-04-24T12:59:42.909Z,18.00
2017-04-24T13:00:42.636Z,18.50
2017-04-24T13:01:42.361Z,19.00
2017-04-24T13:02:42.831Z,19.00
2017-04-24T13:03:42.605Z,19.70
2017-04-24T13:04:42.333Z,20.30
2017-04-24T13:05:42.069Z,20.50
2017-04-24T13:07:41.772Z,20.30
2017-04-24T13:08:41.542Z,20.50
2017-04-24T13:09:41.293Z,20.50
2017-04-24T13:10:41.073Z,20.40
2017-04-24T13:11:40.836Z,20.80
2017-04-24T13:12:40.537Z,21.40
2017-04-24T13:13:40.265Z,21.90
2017-04-24T13:14:39.980Z,21.70
2017-04-24T13:15:39.702Z,21.20
2017-04-24T13:16:39.496Z,21.80